Time;durP1;ratioP1;P1;durP2;ratioP2;P2;SDS_P1;SDS_P2;PMS_P1;PMS_P2;Temp;Humidity;BMP_temperature;BMP_pressure;BME280_temperature;BME280_humidity;BME280_pressure;Samples;Min_cycle;Max_cycle;Signal;HPM_P1;HPM_P2
2024/03/14 00:03:13;;;;;;;10.25;9.23;;;;;;;8.35;100.00;99049.34;4666162;30;20104;-94
2024/03/14 00:06:01;;;;;;;11.18;8.80;;;;;;;8.40;100.00;99037.34;4657582;30;20046;-94
2024/03/14 00:09:10;;;;;;;10.80;8.93;;;;;;;8.40;100.00;99041.78;4713287;30;20052;-93
2024/03/14 00:11:39;;;;;;;13.15;8.80;;;;;;;8.35;100.00;99034.38;4742013;30;20044;-94
2024/03/14 00:14:50;;;;;;;12.35;8.75;;;;;;;8.41;100.00;99030.25;4730493;30;20051;-94
2024/03/14 00:18:14;;;;;;;;;;;;;;;;;;;;;
2024/03/14 00:21:09;;;;;;;10.20;8.18;;;;;;;8.47;100.00;99023.53;4824939;29;20522;-94
2024/03/14 00:31:20;;;;;;;8.05;7.25;;;;;;;8.56;100.00;99004.13;4829402;29;20034;-93
2024/03/14 00:34:10;;;;;;;8.77;7.88;;;;;;;8.60;100.00;98988.81;4828656;29;20503;-94
2024/03/14 00:36:59;;;;;;;8.07;7.03;;;;;;;8.63;100.00;98989.28;4830580;29;20052;-94
2024/03/14 00:40:13;;;;;;;9.35;8.18;;;;;;;8.70;100.00;98981.53;4829967;29;20041;-94
2024/03/14 00:43:32;;;;;;;9.30;7.90;;;;;;;8.77;100.00;98981.69;4831696;29;20065;-94
2024/03/14 00:46:46;;;;;;;;;;;;;;;;;;;;;
2024/03/14 00:49:47;;;;;;;16.70;10.57;;;;;;;8.78;100.00;98978.06;4856825;29;20052;-93
2024/03/14 01:08:15;;;;;;;14.20;9.13;;;;;;;9.09;100.00;98958.84;4858569;29;20043;-94
2024/03/14 01:10:51;;;;;;;10.85;9.73;;;;;;;9.22;100.00;98949.56;4824940;29;20041;-94
2024/03/14 01:13:45;;;;;;;12.32;9.82;;;;;;;9.27;100.00;98955.16;4842545;29;20081;-93
2024/03/14 01:16:51;;;;;;;15.60;10.85;;;;;;;9.28;100.00;98949.72;4857503;29;20053;-93
2024/03/14 01:19:37;;;;;;;16.80;10.20;;;;;;;9.27;100.00;98936.69;4844753;29;20045;-93
2024/03/14 01:22:08;;;;;;;12.73;9.40;;;;;;;9.25;100.00;98936.84;4840056;29;20046;-94
2024/03/14 01:25:35;;;;;;;13.75;9.68;;;;;;;9.28;100.00;98935.69;4843706;29;20049;-93
2024/03/14 01:28:16;;;;;;;8.60;5.47;;;;;;;9.23;100.00;98923.03;4822389;29;20127;-93
2024/03/14 01:35:19;;;;;;;0.90;0.20;;;;;;;9.89;100.00;98919.09;4823386;29;20076;-92
2024/03/14 01:37:55;;;;;;;2.15;0.30;;;;;;;10.04;100.00;98913.06;4818055;29;20038;-92
2024/03/14 01:40:21;;;;;;;;;;;;;;;10.16;100.00;98911.63;4843067;29;20065;-92
2024/03/14 01:46:39;;;;;;;2.00;0.35;;;;;;;10.37;100.00;98906.63;4844516;29;20323;-92
2024/03/14 01:49:20;;;;;;;1.48;0.50;;;;;;;10.45;100.00;98893.34;4845079;29;20071;-92
2024/03/14 01:51:52;;;;;;;0.47;0.25;;;;;;;10.45;100.00;98895.97;4816897;29;20043;-92
2024/03/14 01:54:34;;;;;;;0.63;0.20;;;;;;;10.49;100.00;98892.03;4845791;29;20048;-92
2024/03/14 02:01:24;;;;;;;2.83;0.30;;;;;;;10.55;100.00;98871.97;4848893;29;20602;-92
2024/03/14 02:08:24;;;;;;;1.17;0.10;;;;;;;10.56;100.00;98855.09;4857499;29;20044;-92
2024/03/14 02:36:31;;;;;;;0.75;0.10;;;;;;;10.65;100.00;98808.28;4875920;29;20101;-91
2024/03/14 02:39:44;;;;;;;0.30;0.00;;;;;;;10.63;100.00;98803.19;4848432;29;20044;-93
2024/03/14 02:42:18;;;;;;;0.20;0.05;;;;;;;10.58;100.00;98792.34;4844763;29;20502;-91
2024/03/14 03:28:13;;;;;;;0.08;0.08;;;;;;;10.71;100.00;98743.28;4798149;29;20074;-91
2024/03/14 03:44:41;;;;;;;0.57;0.10;;;;;;;10.78;100.00;98720.41;4853091;29;20033;-91
2024/03/14 04:09:38;;;;;;;1.92;0.20;;;;;;;10.81;100.00;98698.06;4811564;29;20053;-93
2024/03/14 04:12:58;;;;;;;2.72;0.30;;;;;;;10.86;100.00;98691.19;4826923;29;20344;-92
2024/03/14 04:34:53;;;;;;;0.38;0.28;;;;;;;10.86;100.00;98682.44;4765970;30;20186;-93
2024/03/14 04:42:36;;;;;;;1.45;0.20;;;;;;;10.85;100.00;98673.69;4780437;29;20070;-92
2024/03/14 04:46:58;;;;;;;;;;;;;;;;;;;;;
2024/03/14 04:50:49;;;;;;;3.10;0.10;;;;;;;10.81;100.00;98663.69;4697184;30;20486;-94
2024/03/14 04:54:12;;;;;;;0.65;0.10;;;;;;;10.81;100.00;98661.06;4680186;30;20139;-93
2024/03/14 05:00:54;;;;;;;1.15;0.30;;;;;;;10.75;100.00;98668.72;4830888;29;20046;-93
2024/03/14 05:13:02;;;;;;;;;;;;;;;;;;;;;
2024/03/14 05:16:17;;;;;;;1.23;0.47;;;;;;;10.81;100.00;98642.56;4856410;29;20060;-92
2024/03/14 05:23:34;;;;;;;2.42;0.60;;;;;;;10.74;100.00;98626.63;4697301;30;20050;-91
2024/03/14 05:26:55;;;;;;;7.10;0.40;;;;;;;10.72;100.00;98628.66;4715713;30;20105;-90
2024/03/14 05:30:53;;;;;;;7.55;0.68;;;;;;;10.73;100.00;98627.66;4706544;30;20131;-90
2024/03/14 05:34:01;;;;;;;3.53;0.55;;;;;;;10.71;100.00;98624.38;4844439;29;20040;-95
2024/03/14 05:41:27;;;;;;;8.27;1.48;;;;;;;10.72;100.00;98631.31;4846111;29;20075;-91
2024/03/14 05:44:55;;;;;;;8.77;0.90;;;;;;;10.67;100.00;98623.94;4853519;29;20041;-93
2024/03/14 05:47:39;;;;;;;4.18;0.98;;;;;;;10.69;100.00;98629.84;4840422;29;20134;-91
2024/03/14 05:50:36;;;;;;;4.97;0.70;;;;;;;10.70;100.00;98628.84;4854005;29;20040;-92
2024/03/14 05:54:11;;;;;;;6.60;0.85;;;;;;;10.70;100.00;98628.84;4864137;29;20472;-93
2024/03/14 05:57:43;;;;;;;3.33;0.73;;;;;;;10.65;100.00;98634.69;4854210;29;20072;-91
2024/03/14 06:01:03;;;;;;;5.70;0.90;;;;;;;10.62;100.00;98632.41;4845877;29;20037;-91
2024/03/14 06:03:55;;;;;;;7.15;1.30;;;;;;;10.64;100.00;98637.50;4842677;29;20041;-93
2024/03/14 06:26:02;;;;;;;12.48;2.13;;;;;;;10.44;100.00;98595.88;4832572;29;20040;-93
2024/03/14 06:29:29;;;;;;;14.00;2.00;;;;;;;10.41;100.00;98605.00;4852177;29;20045;-91
2024/03/14 06:32:40;;;;;;;11.77;1.92;;;;;;;10.35;100.00;98602.28;4868316;29;20047;-90
2024/03/14 06:39:47;;;;;;;13.57;1.75;;;;;;;10.40;100.00;98595.44;4875841;29;20392;-94
2024/03/14 06:43:36;;;;;;;16.30;2.10;;;;;;;10.38;100.00;98596.63;4856624;29;20036;-93
2024/03/14 06:46:26;;;;;;;12.00;1.67;;;;;;;10.35;100.00;98587.25;4838076;29;20069;-94
2024/03/14 06:53:18;;;;;;;13.43;1.88;;;;;;;10.38;100.00;98594.00;4875689;29;20045;-92
2024/03/14 06:56:19;;;;;;;15.57;1.95;;;;;;;10.37;100.00;98600.25;4858461;29;20049;-92
2024/03/14 07:02:40;;;;;;;10.93;1.80;;;;;;;10.43;100.00;98595.03;4826969;29;20049;-92
2024/03/14 07:06:05;;;;;;;14.23;1.90;;;;;;;10.39;100.00;98592.97;4852536;29;20053;-92
2024/03/14 07:09:53;;;;;;;;;;;;;;;;;;;;;
2024/03/14 07:13:07;;;;;;;10.05;1.40;;;;;;;10.40;100.00;98592.00;4874756;29;20526;-93
2024/03/14 07:16:42;;;;;;;10.25;1.67;;;;;;;10.42;100.00;98597.88;4827870;29;20140;-94
2024/03/14 07:20:43;;;;;;;;;;;;;;;;;;;;;
2024/03/14 07:24:07;;;;;;;2.70;0.50;;;;;;;10.36;100.00;98591.53;4826370;29;20065;-93
2024/03/14 07:36:38;;;;;;;6.05;0.75;;;;;;;10.39;100.00;98585.88;4779368;29;20188;-95
2024/03/14 07:40:00;;;;;;;6.40;1.58;;;;;;;10.33;100.00;98578.72;4772413;29;20050;-94
2024/03/14 07:42:43;;;;;;;13.13;2.72;;;;;;;10.43;100.00;98579.19;4777438;29;20059;-94
2024/03/14 07:45:48;;;;;;;14.02;2.38;;;;;;;10.45;100.00;98586.13;4793391;29;20035;-94
2024/03/14 07:49:09;;;;;;;16.83;2.53;;;;;;;10.46;100.00;98570.13;4805573;29;20034;-96
2024/03/14 07:52:59;;;;;;;;;;;;;;;;;;;;;
2024/03/14 07:55:56;;;;;;;10.00;1.60;;;;;;;10.42;100.00;98564.38;4843083;29;20061;-92
2024/03/14 07:58:56;;;;;;;9.52;1.27;;;;;;;10.46;100.00;98574.56;4829963;29;20045;-93
2024/03/14 08:01:45;;;;;;;9.80;1.10;;;;;;;10.39;100.00;98559.47;4813645;29;20038;-93
2024/03/14 08:05:37;;;;;;;5.63;0.88;;;;;;;10.50;100.00;98562.63;4814294;29;20038;-91
2024/03/14 08:09:24;;;;;;;7.70;1.23;;;;;;;10.50;100.00;98560.81;4768938;29;20553;-91
2024/03/14 08:12:42;;;;;;;4.70;0.90;;;;;;;10.47;100.00;98555.06;4785727;29;20042;-93
2024/03/14 08:16:42;;;;;;;2.60;0.63;;;;;;;10.52;100.00;98542.94;4809819;29;20175;-92
2024/03/14 08:27:01;;;;;;;6.18;0.43;;;;;;;10.61;100.00;98540.97;4770756;29;20046;-91
2024/03/14 08:30:48;;;;;;;4.32;0.43;;;;;;;10.61;100.00;98540.16;4818795;29;20045;-91
2024/03/14 08:41:44;;;;;;;0.75;0.30;;;;;;;10.63;100.00;98535.50;4862114;29;20057;-89
2024/03/14 08:45:14;;;;;;;1.60;0.70;;;;;;;10.66;100.00;98532.47;4847332;29;20076;-91
2024/03/14 08:49:00;;;;;;;5.38;0.47;;;;;;;10.69;100.00;98528.66;4845510;29;20041;-91
2024/03/14 08:52:32;;;;;;;2.40;0.38;;;;;;;10.69;100.00;98516.22;4856398;29;20044;-90
2024/03/14 08:55:56;;;;;;;3.38;0.40;;;;;;;10.79;100.00;98515.88;4829609;29;20041;-87
2024/03/14 08:59:04;;;;;;;3.30;1.00;;;;;;;10.80;100.00;98506.94;4832900;29;20056;-89
2024/03/14 09:02:14;;;;;;;0.77;0.35;;;;;;;10.82;100.00;98509.38;4843501;29;20040;-89
2024/03/14 09:05:37;;;;;;;1.95;0.32;;;;;;;10.87;100.00;98507.00;4830047;29;20032;-89
2024/03/14 09:08:27;;;;;;;3.03;0.50;;;;;;;10.89;100.00;98510.25;4854766;29;20496;-89
2024/03/14 09:11:28;;;;;;;2.63;0.50;;;;;;;10.92;100.00;98512.53;4861551;29;20049;-89
2024/03/14 09:14:50;;;;;;;2.10;0.50;;;;;;;10.91;100.00;98502.94;4842891;29;20489;-88
2024/03/14 09:21:49;;;;;;;0.45;0.25;;;;;;;10.86;100.00;98490.31;4811343;29;20061;-88
2024/03/14 09:25:14;;;;;;;1.73;0.22;;;;;;;10.94;100.00;98486.69;4814948;29;20060;-89
2024/03/14 09:28:43;;;;;;;1.55;0.47;;;;;;;10.94;100.00;98489.34;4809218;29;20150;-88
2024/03/14 09:32:25;;;;;;;2.90;0.30;;;;;;;10.95;100.00;98485.69;4828671;29;20497;-88
2024/03/14 09:39:18;;;;;;;0.75;0.30;;;;;;;11.05;100.00;98485.34;4829245;29;20691;-90
2024/03/14 09:42:50;;;;;;;2.50;0.20;;;;;;;11.10;100.00;98501.41;4858701;29;20131;-89
2024/03/14 09:49:36;;;;;;;0.60;0.43;;;;;;;11.18;100.00;98483.78;4833751;29;20047;-89
2024/03/14 09:52:35;;;;;;;;;;;;;;;11.14;100.00;98489.44;4845519;29;20157;-89
2024/03/14 09:55:32;;;;;;;0.93;0.20;;;;;;;11.23;100.00;98470.75;4833323;29;19927;-87
2024/03/14 09:58:09;;;;;;;0.10;0.10;;;;;;;11.24;100.00;98465.28;4836385;29;20036;-87
2024/03/14 10:00:35;;;;;;;1.70;0.30;;;;;;;11.24;100.00;98465.28;4845201;29;20053;-85
2024/03/14 10:03:13;;;;;;;1.50;0.20;;;;;;;11.32;100.00;98455.53;4828485;29;20793;-86
2024/03/14 10:06:20;;;;;;;3.23;0.30;;;;;;;11.29;100.00;98452.28;4839036;29;20060;-89
2024/03/14 10:12:16;;;;;;;0.98;0.35;;;;;;;11.34;100.00;98448.22;4832788;29;20047;-85
2024/03/14 10:15:12;;;;;;;1.38;0.20;;;;;;;11.40;100.00;98442.94;4854918;29;20042;-88
2024/03/14 10:18:31;;;;;;;1.38;0.32;;;;;;;11.44;100.00;98445.19;4848650;29;20117;-88
2024/03/14 10:21:45;;;;;;;;;;;;;;;;;;;;;
2024/03/14 10:25:09;;;;;;;0.40;0.10;;;;;;;11.33;100.00;98444.75;4845143;29;20057;-88
2024/03/14 10:28:33;;;;;;;0.47;0.13;;;;;;;11.44;100.00;98459.22;4838691;29;20596;-87
2024/03/14 10:35:26;;;;;;;0.15;0.10;;;;;;;11.46;100.00;98443.16;4845436;29;20063;-86
2024/03/14 10:41:29;;;;;;;0.68;0.20;;;;;;;11.47;100.00;98426.25;4856321;29;20044;-86
2024/03/14 10:45:05;;;;;;;0.60;0.20;;;;;;;11.54;100.00;98438.53;4837680;29;20049;-87
2024/03/14 10:48:23;;;;;;;1.50;0.10;;;;;;;11.63;100.00;98433.03;4824094;29;20050;-88
2024/03/14 10:51:31;;;;;;;0.17;0.15;;;;;;;11.70;100.00;98425.09;4826384;29;20057;-88
2024/03/14 10:57:24;;;;;;;;;;;;;;;;;;;;;
2024/03/14 11:00:19;;;;;;;1.35;0.20;;;;;;;11.95;100.00;98424.50;4854925;29;20176;-87
2024/03/14 11:03:17;;;;;;;2.38;0.10;;;;;;;12.12;100.00;98430.25;4799450;29;20601;-87
2024/03/14 11:06:53;;;;;;;0.75;0.30;;;;;;;12.31;100.00;98425.13;4825297;29;20054;-88
2024/03/14 11:10:28;;;;;;;0.95;0.20;;;;;;;12.46;100.00;98414.28;4845251;29;20049;-88
2024/03/14 11:13:23;;;;;;;0.17;0.10;;;;;;;12.47;100.00;98413.28;4845722;29;20568;-89
2024/03/14 11:16:39;;;;;;;1.25;0.20;;;;;;;12.55;100.00;98405.09;4849905;29;20083;-87
2024/03/14 11:19:56;;;;;;;0.75;0.20;;;;;;;12.64;100.00;98405.69;4786257;29;20530;-88
2024/03/14 11:23:34;;;;;;;;;;;;;;;;;;;;;
2024/03/14 11:26:19;;;;;;;0.25;0.10;;;;;;;12.71;100.00;98405.69;4842550;29;20606;-91
2024/03/14 11:29:02;;;;;;;0.38;0.10;;;;;;;12.69;100.00;98394.47;4860960;29;20054;-90
2024/03/14 11:31:53;;;;;;;;;;;;;;;12.63;100.00;98394.28;4820443;29;20054;-89
2024/03/14 11:38:50;;;;;;;0.80;0.10;;;;;;;12.70;100.00;98375.72;4858115;29;20072;-88
2024/03/14 11:44:49;;;;;;;;;;;;;;;;;;;;;
2024/03/14 11:47:57;;;;;;;0.00;0.00;;;;;;;12.95;100.00;98390.91;4835226;29;19963;-86
2024/03/14 11:50:35;;;;;;;0.50;0.10;;;;;;;13.07;100.00;98379.63;4827731;29;20041;-87
2024/03/14 11:53:25;;;;;;;0.22;0.20;;;;;;;13.18;100.00;98365.69;4836563;29;20105;-88
2024/03/14 11:55:55;;;;;;;;;;;;;;;13.11;100.00;98370.22;4856393;29;20074;-88
2024/03/14 11:59:11;;;;;;;0.77;0.10;;;;;;;13.14;100.00;98356.53;4835991;29;19972;-87
2024/03/14 12:01:54;;;;;;;1.63;0.30;;;;;;;13.13;100.00;98361.03;4842101;29;20126;-89
2024/03/14 12:05:27;;;;;;;0.88;0.20;;;;;;;13.18;100.00;98368.34;4841801;29;20036;-87
2024/03/14 12:08:12;;;;;;;2.53;0.22;;;;;;;13.19;100.00;98369.16;4865682;29;20033;-85
2024/03/14 12:11:05;;;;;;;1.23;0.20;;;;;;;13.31;100.00;98364.81;4817386;29;20041;-87
2024/03/14 12:14:11;;;;;;;1.85;0.22;;;;;;;13.54;100.00;98363.44;4843285;29;20041;-87
2024/03/14 12:16:43;;;;;;;2.90;0.30;;;;;;;13.63;100.00;98356.06;4844532;29;20507;-87
2024/03/14 12:22:51;;;;;;;0.57;0.17;;;;;;;13.68;100.00;98350.09;4854325;29;20079;-86
2024/03/14 12:25:51;;;;;;;3.22;0.60;;;;;;;13.76;100.00;98349.81;4846112;29;20092;-86
2024/03/14 12:28:59;;;;;;;2.83;0.50;;;;;;;14.00;100.00;98368.59;4842216;29;20419;-87
2024/03/14 12:31:59;;;;;;;;;;;;;;;14.18;100.00;98356.38;4838947;29;20053;-86
2024/03/14 12:40:31;;;;;;;2.58;0.50;;;;;;;13.94;100.00;98348.22;4837787;29;20143;-86
2024/03/14 12:43:16;;;;;;;2.75;0.77;;;;;;;14.04;100.00;98345.06;4877572;29;20040;-88
2024/03/14 12:46:00;;;;;;;3.55;0.80;;;;;;;14.17;100.00;98346.78;4859960;29;20105;-85
2024/03/14 12:49:09;;;;;;;5.13;0.85;;;;;;;14.19;100.00;98342.06;4869171;29;20804;-88
2024/03/14 12:51:38;;;;;;;6.78;1.10;;;;;;;14.24;100.00;98335.06;4839469;29;20054;-86
2024/03/14 12:54:11;;;;;;;7.35;1.00;;;;;;;14.24;100.00;98334.22;4860718;29;20463;-90
2024/03/14 12:56:52;;;;;;;3.13;0.73;;;;;;;14.37;100.00;98335.94;4874812;29;20139;-86
2024/03/14 12:59:58;;;;;;;4.15;0.85;;;;;;;14.53;100.00;98326.56;4861690;29;20731;-86
2024/03/14 13:02:51;;;;;;;2.35;0.57;;;;;;;14.62;100.00;98321.78;4840031;29;20761;-90
2024/03/14 13:05:21;;;;;;;6.22;0.80;;;;;;;14.61;100.00;98314.81;4838245;29;20034;-89
2024/03/14 13:11:25;;;;;;;7.45;4.60;;;;;;;14.66;100.00;98312.31;4848967;29;20535;-88
2024/03/14 13:14:25;;;;;;;;;;;;;;;;;;;;;
2024/03/14 13:17:53;;;;;;;11.40;5.72;;;;;;;14.47;100.00;98303.53;4876770;29;20306;-89
2024/03/14 13:20:35;;;;;;;8.60;2.20;;;;;;;14.35;100.00;98308.78;4861103;29;20056;-85
2024/03/14 13:23:28;;;;;;;5.30;2.03;;;;;;;14.19;100.00;98307.53;4818846;29;20134;-87
2024/03/14 13:27:02;;;;;;;4.45;2.03;;;;;;;14.27;100.00;98288.63;4844090;29;20049;-88
2024/03/14 13:29:38;;;;;;;4.78;0.90;;;;;;;14.35;100.00;98296.31;4852406;29;20377;-87
2024/03/14 13:32:31;;;;;;;5.43;0.90;;;;;;;14.38;100.00;98290.53;4846756;29;20061;-91
2024/03/14 13:35:02;;;;;;;4.82;0.57;;;;;;;14.35;100.00;98283.00;4830937;29;20041;-87
2024/03/14 13:37:51;;;;;;;2.83;0.63;;;;;;;14.20;100.00;98271.97;4857238;29;20485;-87
2024/03/14 13:40:34;;;;;;;3.80;0.70;;;;;;;14.20;100.00;98286.06;4875237;29;20064;-89
2024/03/14 13:43:28;;;;;;;3.00;0.52;;;;;;;14.12;100.00;98281.84;4846460;29;20032;-88
2024/03/14 13:46:31;;;;;;;3.83;0.70;;;;;;;14.02;100.00;98274.41;4772588;29;20050;-90
2024/03/14 13:54:02;;;;;;;3.25;1.13;;;;;;;13.92;100.00;98273.28;4848909;29;20446;-90
2024/03/14 14:01:19;;;;;;;0.70;0.20;;;;;;;13.74;100.00;98267.72;4837793;29;20150;-92
2024/03/14 14:04:30;;;;;;;0.57;0.20;;;;;;;13.72;100.00;98259.19;4835521;29;20045;-89
2024/03/14 14:07:55;;;;;;;0.40;0.30;;;;;;;13.79;100.00;98276.88;4842568;29;20077;-91
2024/03/14 14:11:03;;;;;;;2.35;0.40;;;;;;;13.79;100.00;98276.88;4817897;29;20632;-91
2024/03/14 14:14:03;;;;;;;;;;;;;;;;;;;;;
2024/03/14 14:18:01;;;;;;;1.80;0.52;;;;;;;13.59;100.00;98254.78;4841898;29;20060;-92
2024/03/14 14:20:55;;;;;;;1.20;0.20;;;;;;;13.55;100.00;98258.09;4810553;29;20655;-91
2024/03/14 14:32:16;;;;;;;1.80;0.30;;;;;;;13.63;100.00;98248.00;4859064;29;20424;-90
2024/03/14 14:40:39;;;;;;;6.75;0.40;;;;;;;14.10;100.00;98229.97;4860431;29;20116;-86
2024/03/14 14:43:49;;;;;;;;;;;;;;;;;;;;;
2024/03/14 14:50:05;;;;;;;2.22;0.40;;;;;;;14.14;100.00;98212.56;4827002;29;20053;-88
2024/03/14 14:53:22;;;;;;;3.83;0.90;;;;;;;14.17;100.00;98217.44;4809771;29;20223;-90
2024/03/14 15:03:46;;;;;;;1.25;0.43;;;;;;;14.35;100.00;98221.09;4810431;29;20045;-91
2024/03/14 15:06:35;;;;;;;5.85;0.63;;;;;;;14.47;100.00;98194.56;4775810;30;20569;-89
2024/03/14 15:09:14;;;;;;;6.38;3.90;;;;;;;14.61;100.00;98213.78;4770989;30;20043;-89
2024/03/14 15:12:27;;;;;;;6.90;3.63;;;;;;;14.72;100.00;98207.69;4785696;29;20077;-91
2024/03/14 15:15:17;;;;;;;7.80;4.40;;;;;;;14.70;100.00;98201.00;4771653;29;20797;-94
2024/03/14 15:18:36;;;;;;;4.53;4.00;;;;;;;14.83;100.00;98206.13;4835609;29;20061;-93
2024/03/14 15:22:00;;;;;;;3.08;1.00;;;;;;;14.84;100.00;98196.31;4841118;29;20043;-93
2024/03/14 15:26:18;;;;;;;;;;;;;;;;;;;;;
2024/03/14 15:34:06;;;;;;;;;;;;;;;;;;;;;
2024/03/14 15:37:14;;;;;;;8.07;1.17;;;;;;;14.87;100.00;98180.69;4775536;29;20074;-92
2024/03/14 15:48:57;;;;;;;4.00;0.80;;;;;;;14.70;100.00;98193.03;4840502;29;20046;-94
2024/03/14 15:55:35;;;;;;;4.63;3.00;;;;;;;14.68;100.00;98190.59;4819109;29;20073;-93
2024/03/14 15:59:32;;;;;;;9.82;6.13;;;;;;;14.62;100.00;98178.22;4782373;29;20107;-94
2024/03/14 16:14:11;;;;;;;38.50;27.70;;;;;;;14.31;100.00;98183.53;4789026;29;20101;-92
2024/03/14 16:17:39;;;;;;;6.03;3.10;;;;;;;14.30;100.00;98186.41;4800291;29;20110;-92
2024/03/14 16:29:26;;;;;;;10.57;4.15;;;;;;;14.17;100.00;98177.59;4800196;29;20050;-94
2024/03/14 16:49:23;;;;;;;10.18;6.32;;;;;;;14.05;100.00;98182.03;4668371;30;20042;-90
2024/03/14 17:05:19;;;;;;;7.47;6.68;;;;;;;13.95;100.00;98180.69;4663844;30;20049;-92
2024/03/14 17:12:49;;;;;;;6.15;5.15;;;;;;;13.67;100.00;98186.50;4709931;30;20686;-91
2024/03/14 17:15:47;;;;;;;3.90;1.92;;;;;;;13.64;100.00;98183.28;4670977;30;20045;-91
2024/03/14 17:23:14;;;;;;;1.92;0.85;;;;;;;13.44;100.00;98183.44;4669280;30;20102;-92
2024/03/14 17:31:22;;;;;;;25.33;17.15;;;;;;;13.29;100.00;98186.44;4822939;29;20066;-92
2024/03/14 19:11:23;;;;;;;24.83;14.45;;;;;;;11.71;100.00;98225.59;5952195;23;20035;-96
2024/03/14 19:14:25;;;;;;;20.77;5.07;;;;;;;11.64;100.00;98229.06;4864326;29;20045;-96
2024/03/14 19:37:16;;;;;;;22.80;10.82;;;;;;;11.60;100.00;98224.38;4886612;29;20053;-95
2024/03/14 19:44:43;;;;;;;35.58;12.52;;;;;;;11.58;100.00;98223.81;4802213;29;20038;-89
2024/03/14 19:59:54;;;;;;;23.33;9.90;;;;;;;11.47;100.00;98247.19;4789971;29;20042;-91
2024/03/14 20:02:46;;;;;;;20.30;9.23;;;;;;;11.44;100.00;98250.25;4765382;30;20040;-96
2024/03/14 20:05:43;;;;;;;23.55;11.60;;;;;;;11.43;100.00;98253.09;4768937;29;20058;-95
2024/03/14 20:08:24;;;;;;;16.52;5.60;;;;;;;11.44;100.00;98241.50;4770509;29;20051;-93
2024/03/14 20:11:42;;;;;;;11.07;2.72;;;;;;;11.43;100.00;98250.47;4873420;29;20491;-93
2024/03/14 20:15:50;;;;;;;17.75;3.40;;;;;;;11.37;100.00;98238.88;4823074;29;20052;-93
2024/03/14 20:18:24;;;;;;;9.32;3.45;;;;;;;11.29;100.00;98242.53;4806619;29;20215;-93
2024/03/14 20:21:20;;;;;;;13.70;5.70;;;;;;;11.33;100.00;98251.69;4796177;29;20050;-92
2024/03/14 20:28:04;;;;;;;14.15;3.72;;;;;;;11.15;100.00;98239.88;4761308;30;20069;-94
2024/03/14 20:30:53;;;;;;;12.05;5.68;;;;;;;11.13;100.00;98230.53;4761162;29;20048;-93
2024/03/14 20:33:56;;;;;;;12.20;3.25;;;;;;;11.12;100.00;98239.47;4821859;29;20035;-94
2024/03/14 20:41:23;;;;;;;8.00;1.20;;;;;;;11.00;100.00;98232.16;4805693;29;20046;-94
2024/03/14 20:45:23;;;;;;;7.65;1.20;;;;;;;10.97;100.00;98237.03;4748468;30;20052;-93
2024/03/14 20:49:55;;;;;;;;;;;;;;;;;;;;;
2024/03/14 20:57:01;;;;;;;10.45;1.88;;;;;;;10.83;100.00;98230.91;4838868;29;20045;-95
2024/03/14 21:05:10;;;;;;;14.07;2.33;;;;;;;10.77;100.00;98216.66;4837395;29;20046;-92
2024/03/14 21:07:52;;;;;;;;;;;;;;;;;;;;;
2024/03/14 21:11:18;;;;;;;9.65;2.25;;;;;;;10.72;100.00;98211.19;4788711;29;20059;-93
2024/03/14 21:14:22;;;;;;;15.07;3.08;;;;;;;10.70;100.00;98210.56;4775604;29;20038;-91
2024/03/14 21:18:11;;;;;;;18.48;2.90;;;;;;;10.71;100.00;98210.34;4831238;29;20054;-95
2024/03/14 21:38:40;;;;;;;21.02;4.75;;;;;;;10.64;100.00;98210.34;4841734;29;20063;-93
2024/03/14 21:41:35;;;;;;;;;;;;;;;;;;;;;
2024/03/14 21:45:03;;;;;;;;;;;;;;;;;;;;;
2024/03/14 21:48:28;;;;;;;;;;;;;;;;;;;;;
2024/03/14 21:51:07;;;;;;;26.40;3.05;;;;;;;10.62;100.00;98212.34;4872161;29;20059;-86
2024/03/14 22:02:23;;;;;;;20.02;3.25;;;;;;;10.67;100.00;98212.59;4815669;29;20172;-82
2024/03/14 22:05:52;;;;;;;17.77;3.60;;;;;;;10.70;100.00;98215.84;4841325;29;20125;-84
2024/03/14 22:08:48;;;;;;;17.10;2.90;;;;;;;10.69;100.00;98217.66;4843516;29;20585;-85
2024/03/14 22:11:19;;;;;;;15.77;2.38;;;;;;;10.63;100.00;98211.38;4851464;29;20535;-83
2024/03/14 22:13:46;;;;;;;19.38;3.20;;;;;;;10.61;100.00;98223.94;4778527;29;20055;-87
2024/03/14 22:17:02;;;;;;;22.00;3.15;;;;;;;10.63;100.00;98215.81;4764290;29;20062;-88
2024/03/14 22:20:22;;;;;;;25.05;3.75;;;;;;;10.63;100.00;98229.03;4760632;29;20512;-85
2024/03/14 22:22:59;;;;;;;21.05;3.22;;;;;;;10.62;100.00;98235.34;4780505;29;20058;-84
2024/03/14 22:25:31;;;;;;;23.65;3.15;;;;;;;10.61;100.00;98233.69;4770858;29;20046;-86
2024/03/14 22:27:59;;;;;;;24.80;4.20;;;;;;;10.63;100.00;98231.69;4761748;30;20503;-85
2024/03/14 22:30:30;;;;;;;21.17;3.13;;;;;;;10.65;100.00;98237.59;4771134;29;20070;-84
2024/03/14 22:51:20;;;;;;;19.50;2.50;;;;;;;10.44;100.00;98244.59;4839734;29;20144;-87
2024/03/14 22:54:09;;;;;;;12.13;3.03;;;;;;;10.34;100.00;98249.41;4849059;29;20051;-87
2024/03/14 23:53:35;;;;;;;5.72;1.15;;;;;;;10.20;100.00;98340.97;4663979;30;20060;-84
2024/03/14 23:56:27;;;;;;;8.73;0.98;;;;;;;10.20;100.00;98339.16;4667511;30;20051;-87
